Date,TemperatureHighF,TemperatureAvgF,TemperatureLowF,DewpointHighF,DewpointAvgF,DewpointLowF,HumidityHigh,HumidityAvg,HumidityLow,PressureMaxIn,PressureMinIn,WindSpeedMaxMPH,WindSpeedAvgMPH,GustSpeedMaxMPH,PrecipitationSumIn
2013-3-1,61.0,44.5,29.3,34.3,30.1,26.3,91,60,30,29.98,29.87,6,2,19,0.00
2013-3-2,48.0,38.3,29.8,42.5,33.8,27.6,100,84,68,29.95,29.88,5,2,13,0.10
2013-3-3,54.9,38.8,28.4,30.2,26.2,20.9,95,64,29,30.04,29.92,4,2,12,0.00
2013-3-4,65.7,43.0,22.1,32.8,20.6,6.1,93,50,10,30.20,30.04,3,1,11,0.00
2013-3-5,72.3,53.2,35.2,58.8,43.7,29.8,100,72,43,30.11,29.69,7,2,24,0.11
2013-3-6,54.3,43.7,35.6,40.1,27.9,23.2,78,55,34,30.14,29.77,10,5,28,0.11
2013-3-7,65.1,45.0,28.4,35.0,30.0,26.0,93,61,23,30.26,30.14,6,1,16,0.00
2013-3-8,66.4,47.5,33.6,34.8,24.6,7.0,83,49,10,30.32,30.19,5,2,13,0.00
2013-3-9,74.1,50.8,32.7,37.7,29.3,21.2,84,50,14,30.36,30.23,4,1,11,0.00
2013-3-10,78.8,56.4,36.3,49.5,40.8,34.2,95,62,23,30.29,30.15,5,1,13,0.00
2013-3-11,75.2,60.1,44.1,57.4,49.2,37.5,85,69,47,30.20,29.85,5,2,15,0.00
2013-3-12,73.9,62.1,53.4,60.1,51.3,37.4,100,72,33,30.00,29.78,4,2,15,0.40
2013-3-13,67.8,53.6,39.0,38.0,28.5,14.9,78,42,14,30.19,30.00,8,4,24,0.00
2013-3-14,62.6,44.9,29.1,29.3,20.6,6.1,77,43,11,30.34,30.18,6,2,13,0.00
2013-3-15,78.1,56.2,32.9,40.5,30.5,17.6,75,41,18,30.25,30.01,5,2,18,0.00
2013-3-16,84.0,67.6,53.2,46.7,41.4,33.4,71,42,17,30.02,29.87,6,4,21,0.00
2013-3-17,80.2,66.4,55.0,56.5,51.4,44.8,87,60,33,30.04,29.94,6,2,15,0.00
2013-3-18,71.2,58.7,46.9,62.2,55.5,46.7,100,90,70,30.08,29.83,11,1,34,0.96
2013-3-19,77.4,59.2,49.3,55.1,40.7,14.5,100,63,10,30.05,29.86,7,2,16,0.03
2013-3-20,68.2,54.4,43.5,30.4,21.3,7.2,46,30,10,30.14,29.86,4,1,11,0.00
2013-3-21,59.5,47.0,35.8,29.1,16.7,-0.8,62,34,10,29.98,29.83,7,3,20,0.00
2013-3-22,54.1,43.3,32.9,34.1,22.5,17.1,72,45,27,30.10,29.98,4,1,9,0.00
2013-3-23,58.1,47.3,42.4,54.5,44.2,34.1,100,89,70,30.06,29.90,4,1,14,0.46
2013-3-24,50.0,47.6,44.4,49.7,47.3,44.2,100,99,95,29.90,29.56,6,2,17,1.53
2013-3-25,54.5,45.5,37.9,46.5,30.8,23.1,99,59,32,30.00,29.62,9,5,27,0.03
2013-3-26,55.0,41.9,31.1,30.7,26.8,24.0,79,56,33,30.23,29.99,6,3,19,0.00
2013-3-27,61.5,44.1,28.4,31.4,25.9,19.1,89,55,20,30.31,30.20,5,2,19,0.00
2013-3-28,66.4,48.0,28.2,34.9,25.5,16.2,85,48,15,30.34,30.21,4,1,13,0.00
2013-3-29,73.2,53.8,34.2,35.1,26.4,10.3,84,42,10,30.36,30.21,4,1,11,0.00
2013-3-30,79.9,62.0,49.6,50.1,44.4,33.3,85,56,28,30.25,30.06,4,1,10,0.00
2013-3-31,81.3,66.5,60.8,62.5,57.8,49.0,96,76,38,30.06,29.88,6,2,15,0.06